Time;durP1;ratioP1;P1;durP2;ratioP2;P2;SDS_P1;SDS_P2;PMS_P1;PMS_P2;Temp;Humidity;BMP_temperature;BMP_pressure;BME280_temperature;BME280_humidity;BME280_pressure;Samples;Min_cycle;Max_cycle;Signal;HPM_P1;HPM_P2
2023/09/10 00:00:24;;;;;;;10.23;9.33;;;;;;;18.48;100.00;96569.28;5090357;27;102025;-66
2023/09/10 00:02:51;;;;;;;10.77;9.67;;;;;;;18.42;100.00;96570.47;5090124;27;105450;-66
2023/09/10 00:05:18;;;;;;;9.50;8.70;;;;;;;18.35;100.00;96568.16;5093057;27;104456;-66
2023/09/10 00:07:45;;;;;;;9.40;8.50;;;;;;;18.36;100.00;96571.66;5090084;27;105255;-66
2023/09/10 00:10:12;;;;;;;10.03;9.03;;;;;;;18.33;100.00;96573.03;5089373;27;105076;-67
2023/09/10 00:12:39;;;;;;;9.67;8.87;;;;;;;18.09;100.00;96566.13;5090195;27;101892;-67
2023/09/10 00:15:09;;;;;;;10.60;9.57;;;;;;;17.92;100.00;96572.03;5089835;27;105533;-67
2023/09/10 00:17:36;;;;;;;9.57;8.57;;;;;;;17.95;100.00;96566.06;5089043;27;105673;-67
2023/09/10 00:20:05;;;;;;;9.37;8.53;;;;;;;17.91;100.00;96570.44;5090012;27;101960;-67
2023/09/10 00:22:32;;;;;;;9.43;8.63;;;;;;;17.93;100.00;96572.84;5089811;27;104118;-67
2023/09/10 00:24:59;;;;;;;9.87;8.87;;;;;;;17.91;100.00;96569.63;5089180;27;105579;-68
2023/09/10 00:27:26;;;;;;;8.90;8.10;;;;;;;18.02;100.00;96573.75;5093394;27;102007;-68
2023/09/10 00:29:53;;;;;;;9.87;9.00;;;;;;;18.09;100.00;96582.28;5088834;27;105455;-68
2023/09/10 00:32:22;;;;;;;9.67;8.87;;;;;;;18.21;100.00;96579.94;5089711;27;101902;-68
2023/09/10 00:34:49;;;;;;;9.80;8.80;;;;;;;18.12;100.00;96577.13;5089793;27;105844;-68
2023/09/10 00:37:17;;;;;;;9.17;8.37;;;;;;;18.16;100.00;96574.63;5089003;27;105549;-68
2023/09/10 00:39:43;;;;;;;10.23;9.33;;;;;;;18.11;100.00;96577.41;5089653;27;101894;-68
2023/09/10 00:42:10;;;;;;;10.40;9.50;;;;;;;17.96;100.00;96567.66;5089441;27;105439;-68
2023/09/10 00:44:38;;;;;;;9.67;8.77;;;;;;;18.04;100.00;96579.66;5088956;27;104633;-67
2023/09/10 00:47:05;;;;;;;9.57;8.60;;;;;;;17.85;100.00;96579.69;5089613;27;101905;-67
2023/09/10 00:49:34;;;;;;;9.23;8.43;;;;;;;17.94;100.00;96590.56;5092271;27;105445;-67
2023/09/10 00:52:03;;;;;;;11.23;8.50;;;;;;;17.84;100.00;96579.97;5089372;27;102015;-66
2023/09/10 00:54:33;;;;;;;9.63;8.80;;;;;;;17.76;100.00;96580.63;5089334;27;105291;-66
2023/09/10 00:57:01;;;;;;;9.40;8.60;;;;;;;17.80;100.00;96576.25;5089066;27;105564;-66
2023/09/10 00:59:29;;;;;;;9.60;8.80;;;;;;;17.77;100.00;96585.69;5089479;27;102060;-66
2023/09/10 01:01:56;;;;;;;9.83;8.93;;;;;;;17.70;100.00;96581.75;5089508;27;104337;-66
2023/09/10 01:04:23;;;;;;;9.30;8.43;;;;;;;17.82;100.00;96585.63;5088822;27;104453;-66
2023/09/10 01:06:52;;;;;;;8.93;8.07;;;;;;;17.75;100.00;96579.81;5089528;27;102061;-66
2023/09/10 01:09:19;;;;;;;9.73;8.73;;;;;;;17.52;100.00;96574.50;5089403;27;105198;-67
2023/09/10 01:11:54;;;;;;;9.13;8.33;;;;;;;17.54;100.00;96581.19;5092117;27;105503;-67
2023/09/10 01:14:28;;;;;;;8.53;7.83;;;;;;;17.46;100.00;96581.84;5089283;27;105229;-67
2023/09/10 01:17:03;;;;;;;8.47;7.77;;;;;;;17.17;100.00;96585.66;5088677;27;105435;-67
2023/09/10 01:19:46;;;;;;;8.70;8.00;;;;;;;17.04;100.00;96579.09;5089324;27;102113;-67
2023/09/10 01:22:25;;;;;;;9.00;8.30;;;;;;;17.26;100.00;96589.31;5089200;27;104369;-67
2023/09/10 01:24:56;;;;;;;8.07;7.27;;;;;;;17.45;100.00;96593.66;5088354;27;105743;-67
2023/09/10 01:27:23;;;;;;;8.80;8.10;;;;;;;17.47;100.00;96588.81;5089145;27;101858;-67
2023/09/10 01:29:50;;;;;;;11.03;8.80;;;;;;;17.65;100.00;96590.72;5092463;27;105583;-66
2023/09/10 01:32:24;;;;;;;9.37;8.57;;;;;;;17.72;100.00;96593.03;5092030;27;105762;-66
2023/09/10 01:34:59;;;;;;;8.43;7.73;;;;;;;17.80;100.00;96589.69;5096113;27;101884;-66
2023/09/10 01:37:32;;;;;;;8.23;7.63;;;;;;;17.69;100.00;96588.22;5091858;27;105737;-66
2023/09/10 01:40:06;;;;;;;8.97;8.17;;;;;;;17.57;100.00;96580.59;5092639;27;102180;-66
2023/09/10 01:42:35;;;;;;;9.33;8.53;;;;;;;17.28;100.00;96573.69;5092592;27;105215;-66
2023/09/10 01:45:03;;;;;;;9.83;8.93;;;;;;;16.92;100.00;96570.63;5091602;27;105585;-66
2023/09/10 01:47:30;;;;;;;9.07;8.33;;;;;;;17.01;100.00;96576.16;5093823;27;101818;-66
2023/09/10 01:49:58;;;;;;;8.33;7.50;;;;;;;17.09;100.00;96578.22;5092390;27;105237;-66
2023/09/10 01:52:25;;;;;;;9.13;8.30;;;;;;;17.24;100.00;96578.03;5091603;27;105429;-65
2023/09/10 01:54:52;;;;;;;9.03;8.13;;;;;;;17.19;100.00;96586.97;5092337;27;101959;-65
2023/09/10 01:57:21;;;;;;;8.73;8.00;;;;;;;17.32;100.00;96588.16;5095269;27;105662;-65
2023/09/10 01:59:48;;;;;;;9.13;8.30;;;;;;;17.32;100.00;96588.16;5092447;27;102156;-65
2023/09/10 02:02:15;;;;;;;9.07;8.20;;;;;;;17.24;100.00;96586.91;5092258;27;105735;-66
2023/09/10 02:04:42;;;;;;;9.43;8.63;;;;;;;17.21;100.00;96592.03;5091424;27;105733;-66
2023/09/10 02:07:09;;;;;;;9.27;8.10;;;;;;;17.13;100.00;96590.00;5091991;27;102284;-66
2023/09/10 02:09:36;;;;;;;9.40;8.60;;;;;;;17.00;100.00;96586.09;5092277;27;105266;-66
2023/09/10 02:12:03;;;;;;;8.67;7.93;;;;;;;16.90;100.00;96588.91;5091213;27;105711;-66
2023/09/10 02:14:32;;;;;;;8.73;7.83;;;;;;;16.90;100.00;96590.81;5091975;27;102128;-66
2023/09/10 02:16:59;;;;;;;8.60;7.80;;;;;;;16.75;100.00;96590.94;5094805;27;104326;-66
2023/09/10 02:19:27;;;;;;;8.60;7.80;;;;;;;17.03;100.00;96590.13;5091880;27;101902;-66
2023/09/10 02:21:55;;;;;;;7.60;6.90;;;;;;;16.89;100.00;96599.94;5091740;27;105467;-66
2023/09/10 02:24:22;;;;;;;7.77;7.17;;;;;;;16.89;100.00;96594.59;5091331;27;104979;-66
2023/09/10 02:26:50;;;;;;;7.90;7.30;;;;;;;17.02;100.00;96599.25;5091811;27;101972;-66
2023/09/10 02:29:17;;;;;;;8.63;7.83;;;;;;;16.90;100.00;96588.13;5092650;27;101763;-66
2023/09/10 02:31:46;;;;;;;8.83;8.03;;;;;;;16.92;100.00;96594.00;5091142;27;104511;-66
2023/09/10 02:34:13;;;;;;;9.50;8.70;;;;;;;17.01;100.00;96597.66;5091721;27;102270;-66
2023/09/10 02:36:40;;;;;;;9.50;8.50;;;;;;;16.90;100.00;96596.97;5091517;27;105197;-66
2023/09/10 02:39:07;;;;;;;9.93;9.03;;;;;;;17.11;100.00;96602.94;5094221;27;105394;-66
2023/09/10 02:41:34;;;;;;;10.33;9.43;;;;;;;17.17;100.00;96602.56;5091589;27;104536;-67
2023/09/10 02:44:01;;;;;;;10.00;9.10;;;;;;;17.23;100.00;96603.31;5092170;27;103055;-67
2023/09/10 02:46:28;;;;;;;10.10;9.03;;;;;;;17.27;100.00;96604.38;5091427;27;101892;-67
2023/09/10 02:48:57;;;;;;;10.20;9.30;;;;;;;17.41;100.00;96603.41;5091452;27;105248;-67
2023/09/10 02:51:24;;;;;;;11.63;10.60;;;;;;;17.01;100.00;96597.66;5090722;27;105674;-67
2023/09/10 02:53:51;;;;;;;11.33;10.23;;;;;;;16.98;100.00;96596.34;5090225;27;101993;-67
2023/09/10 02:56:18;;;;;;;10.43;9.40;;;;;;;17.00;100.00;96598.75;5090329;27;105246;-67
2023/09/10 02:58:45;;;;;;;10.70;9.80;;;;;;;16.84;100.00;96592.72;5090726;27;105815;-66
2023/09/10 03:01:12;;;;;;;10.77;9.87;;;;;;;16.86;100.00;96604.00;5094734;27;101991;-66
2023/09/10 03:03:38;;;;;;;10.00;9.20;;;;;;;16.94;100.00;96598.00;5090602;27;106281;-66
2023/09/10 03:06:13;;;;;;;9.50;8.70;;;;;;;17.14;100.00;96605.03;5091001;27;101906;-66
2023/09/10 03:08:42;;;;;;;10.03;9.00;;;;;;;17.14;100.00;96595.09;5091161;27;105368;-66
2023/09/10 03:11:10;;;;;;;10.43;9.40;;;;;;;16.99;100.00;96606.00;5090721;27;105562;-67
2023/09/10 03:13:37;;;;;;;9.37;8.57;;;;;;;16.91;100.00;96603.16;5090938;27;102026;-67
2023/09/10 03:16:04;;;;;;;10.20;9.23;;;;;;;16.82;100.00;96599.47;5091025;27;104474;-71
2023/09/10 03:18:32;;;;;;;10.30;9.27;;;;;;;16.86;100.00;96600.50;5090184;27;105329;-66
2023/09/10 03:21:02;;;;;;;12.87;9.67;;;;;;;17.08;100.00;96598.13;5090919;27;101994;-65
2023/09/10 03:23:30;;;;;;;10.17;9.23;;;;;;;17.00;100.00;96598.75;5076752;27;105402;-66
2023/09/10 03:25:58;;;;;;;10.63;9.73;;;;;;;17.00;100.00;96596.06;5090756;27;101962;-67
2023/09/10 03:28:25;;;;;;;11.07;10.03;;;;;;;16.91;100.00;96593.22;5090681;27;104428;-66
2023/09/10 03:30:56;;;;;;;12.00;9.53;;;;;;;16.99;100.00;96597.13;5089120;27;105699;-66
2023/09/10 03:33:24;;;;;;;10.87;9.87;;;;;;;17.00;100.00;96598.75;5090666;27;101838;-66
2023/09/10 03:35:51;;;;;;;10.90;9.80;;;;;;;17.02;100.00;96599.25;5090783;27;104317;-66
2023/09/10 03:38:18;;;;;;;11.27;10.20;;;;;;;16.87;100.00;96596.72;5091578;27;102847;-66
2023/09/10 03:40:46;;;;;;;10.13;9.13;;;;;;;16.81;100.00;96595.19;5089670;27;101962;-66
2023/09/10 03:43:15;;;;;;;9.83;8.87;;;;;;;16.46;100.00;96592.84;5090390;27;105643;-66
2023/09/10 03:45:42;;;;;;;9.40;8.47;;;;;;;16.45;100.00;96596.63;5093461;27;105421;-66
2023/09/10 03:48:10;;;;;;;9.20;8.17;;;;;;;16.60;100.00;96589.22;5090559;27;105669;-66
2023/09/10 03:50:37;;;;;;;9.27;7.87;;;;;;;16.65;100.00;96593.72;5088938;27;105716;-66
2023/09/10 03:53:04;;;;;;;10.17;9.17;;;;;;;16.70;100.00;96591.00;5090058;27;101974;-66
2023/09/10 03:55:31;;;;;;;9.23;8.53;;;;;;;16.66;100.00;96609.56;5090429;27;105241;-66
2023/09/10 03:58:01;;;;;;;9.43;8.53;;;;;;;16.78;100.00;96599.25;5089620;27;105394;-66
2023/09/10 04:00:29;;;;;;;9.20;8.30;;;;;;;16.85;100.00;96604.28;5090347;27;101894;-66
2023/09/10 04:02:56;;;;;;;9.63;8.67;;;;;;;16.79;100.00;96605.44;5090144;27;105599;-66
2023/09/10 04:05:23;;;;;;;10.50;9.30;;;;;;;16.74;100.00;96598.19;5089374;27;105120;-66
2023/09/10 04:07:50;;;;;;;10.33;9.40;;;;;;;16.82;100.00;96600.28;5093837;27;102045;-66
2023/09/10 04:10:18;;;;;;;10.63;9.73;;;;;;;16.73;100.00;96607.34;5089603;27;105036;-66
2023/09/10 04:12:45;;;;;;;10.40;9.60;;;;;;;16.50;100.00;96601.91;5090145;27;101920;-66
2023/09/10 04:15:15;;;;;;;9.63;8.80;;;;;;;16.78;100.00;96598.44;5090064;27;105303;-66
2023/09/10 04:17:42;;;;;;;10.27;9.27;;;;;;;16.89;100.00;96606.09;5089269;27;105058;-66
2023/09/10 04:20:11;;;;;;;10.73;9.67;;;;;;;16.75;100.00;96604.38;5090118;27;101885;-66
2023/09/10 04:22:37;;;;;;;10.67;9.67;;;;;;;16.71;100.00;96609.53;5090319;27;105254;-66
2023/09/10 04:25:05;;;;;;;9.20;8.43;;;;;;;16.53;100.00;96598.69;5089510;27;105424;-66
2023/09/10 04:27:32;;;;;;;9.13;8.33;;;;;;;16.31;100.00;96593.75;5093475;27;101936;-66
2023/09/10 04:29:59;;;;;;;9.20;8.40;;;;;;;16.32;100.00;96600.72;5089025;27;104122;-67
2023/09/10 04:32:28;;;;;;;8.97;8.07;;;;;;;16.31;100.00;96601.00;5089805;27;101913;-66
2023/09/10 04:34:55;;;;;;;9.27;8.40;;;;;;;16.35;100.00;96605.50;5089800;27;105435;-66
2023/09/10 04:37:23;;;;;;;9.40;8.50;;;;;;;16.47;100.00;96610.56;5089491;27;105471;-66
2023/09/10 04:39:50;;;;;;;9.83;8.87;;;;;;;16.71;100.00;96603.34;5091948;27;101782;-66
2023/09/10 04:42:17;;;;;;;9.73;8.63;;;;;;;16.71;100.00;96606.03;5092062;27;102576;-66
2023/09/10 04:44:44;;;;;;;9.70;8.90;;;;;;;16.61;100.00;96600.75;5089825;27;105534;-66
2023/09/10 04:47:11;;;;;;;9.90;9.00;;;;;;;16.58;100.00;96604.78;5090133;27;102194;-66
2023/09/10 04:49:40;;;;;;;9.37;8.57;;;;;;;16.51;100.00;96606.22;5093240;27;105223;-66
2023/09/10 04:52:07;;;;;;;10.00;9.10;;;;;;;16.50;100.00;96610.78;5090020;27;101863;-66
2023/09/10 04:54:34;;;;;;;10.50;9.57;;;;;;;16.60;100.00;96612.56;5089960;27;105482;-66
2023/09/10 04:57:01;;;;;;;10.10;9.20;;;;;;;16.52;100.00;96618.56;5089562;27;105492;-66
2023/09/10 04:59:28;;;;;;;10.43;9.43;;;;;;;16.60;100.00;96620.63;5090301;27;102034;-66
2023/09/10 05:01:57;;;;;;;10.53;9.63;;;;;;;16.77;100.00;96629.06;5091056;27;105521;-66
2023/09/10 05:04:24;;;;;;;10.37;9.47;;;;;;;16.80;100.00;96625.81;5093181;27;105681;-66
2023/09/10 05:06:53;;;;;;;10.63;9.60;;;;;;;16.57;100.00;96629.25;5093688;27;102178;-66
2023/09/10 05:09:20;;;;;;;10.70;9.80;;;;;;;16.60;100.00;96631.38;5093923;27;104178;-65
2023/09/10 05:11:47;;;;;;;10.67;9.63;;;;;;;16.74;100.00;96640.38;5096588;27;105631;-65
2023/09/10 05:14:14;;;;;;;10.00;9.10;;;;;;;16.78;100.00;96634.16;5093662;27;105456;-65
2023/09/10 05:16:42;;;;;;;10.20;9.37;;;;;;;16.90;100.00;96639.16;5089026;27;105971;-65
2023/09/10 05:19:09;;;;;;;10.73;9.73;;;;;;;16.98;100.00;96635.84;5081852;27;101976;-65
2023/09/10 05:21:36;;;;;;;9.67;8.80;;;;;;;16.88;100.00;96630.56;5084056;27;105275;-66
2023/09/10 05:24:06;;;;;;;10.43;9.53;;;;;;;16.93;100.00;96638.56;5081729;27;105790;-66
2023/09/10 05:26:32;;;;;;;10.43;9.53;;;;;;;16.94;100.00;96640.19;5086713;27;102169;-66
2023/09/10 05:28:59;;;;;;;11.13;10.03;;;;;;;17.04;100.00;96634.69;5093981;27;103044;-66
2023/09/10 05:31:27;;;;;;;11.97;10.80;;;;;;;17.20;100.00;96645.00;5091899;27;105439;-66
2023/09/10 05:33:54;;;;;;;10.50;9.60;;;;;;;17.30;100.00;96638.72;5095810;27;101929;-66
2023/09/10 05:36:21;;;;;;;12.43;11.30;;;;;;;17.45;100.00;96641.28;5092867;27;105476;-67
2023/09/10 05:38:48;;;;;;;11.47;10.37;;;;;;;17.58;100.00;96638.69;5092383;27;101778;-69
2023/09/10 05:41:17;;;;;;;11.83;10.73;;;;;;;17.68;100.00;96643.13;5092314;27;105293;-68
2023/09/10 05:43:44;;;;;;;11.80;10.90;;;;;;;17.75;100.00;96646.25;5091718;27;105582;-66
2023/09/10 05:46:11;;;;;;;11.97;10.90;;;;;;;17.88;100.00;96642.88;5092381;27;101915;-66
2023/09/10 05:48:39;;;;;;;11.17;10.27;;;;;;;17.96;100.00;96642.19;5092188;27;105532;-65
2023/09/10 05:51:06;;;;;;;12.13;11.13;;;;;;;18.05;100.00;96641.25;5091720;27;105548;-66
2023/09/10 05:53:33;;;;;;;12.70;11.53;;;;;;;18.19;100.00;96634.06;5092018;27;101954;-66
2023/09/10 05:56:04;;;;;;;12.27;11.13;;;;;;;18.32;100.00;96632.56;5094974;27;105496;-65
2023/09/10 05:58:33;;;;;;;12.37;11.37;;;;;;;18.54;100.00;96632.75;5092057;27;101908;-65
2023/09/10 06:01:00;;;;;;;12.77;11.53;;;;;;;18.86;100.00;96630.81;5091573;27;105621;-66
2023/09/10 06:03:27;;;;;;;12.27;11.23;;;;;;;19.07;100.00;96636.66;5091290;27;105384;-66
2023/09/10 06:05:56;;;;;;;11.73;10.73;;;;;;;19.27;100.00;96642.50;5091884;27;101887;-66
2023/09/10 06:08:23;;;;;;;12.10;11.10;;;;;;;19.50;100.00;96644.19;5091766;27;105419;-66
2023/09/10 06:10:50;;;;;;;12.77;11.63;;;;;;;19.54;100.00;96636.31;5091297;27;104682;-66
2023/09/10 06:13:17;;;;;;;11.93;10.73;;;;;;;19.63;100.00;96635.28;5091178;27;101887;-66
2023/09/10 06:15:45;;;;;;;12.03;11.03;;;;;;;19.71;100.00;96636.47;5092950;27;102537;-66
2023/09/10 06:18:12;;;;;;;11.37;10.30;;;;;;;19.80;100.00;96638.19;5094452;27;102032;-66
2023/09/10 06:20:39;;;;;;;11.20;10.30;;;;;;;19.96;100.00;96635.97;5091758;27;105440;-66
2023/09/10 06:23:06;;;;;;;11.90;10.87;;;;;;;19.85;100.00;96642.69;5092366;27;103008;-66
2023/09/10 06:25:34;;;;;;;10.27;9.47;;;;;;;20.00;100.00;96634.25;5091528;27;102019;-66
2023/09/10 06:28:02;;;;;;;11.47;10.57;;;;;;;20.07;100.00;96637.34;5092194;27;105406;-66
2023/09/10 06:30:29;;;;;;;10.20;9.40;;;;;;;20.07;100.00;96635.47;5090997;27;104525;-66
2023/09/10 06:32:58;;;;;;;10.80;9.90;;;;;;;20.00;100.00;96645.06;5092364;27;101852;-66
2023/09/10 06:35:26;;;;;;;11.03;10.13;;;;;;;20.10;100.00;96639.47;5092443;27;104850;-66
2023/09/10 06:37:53;;;;;;;10.40;9.53;;;;;;;20.14;100.00;96640.44;5094300;27;105658;-66
2023/09/10 06:40:21;;;;;;;11.33;10.23;;;;;;;20.14;100.00;96641.25;5092239;27;105399;-66
2023/09/10 06:42:48;;;;;;;10.70;9.60;;;;;;;20.40;100.00;96641.47;5090420;27;105019;-66
2023/09/10 06:45:31;;;;;;;9.90;8.40;;;;;;;20.65;100.00;96646.25;5092098;27;101890;-66
2023/09/10 06:48:00;;;;;;;10.60;9.47;;;;;;;20.78;100.00;96642.69;5092304;27;105239;-66
2023/09/10 06:50:27;;;;;;;10.53;9.73;;;;;;;20.82;100.00;96639.03;5091426;27;105713;-66
2023/09/10 06:52:54;;;;;;;10.47;9.53;;;;;;;21.00;100.00;96637.28;5092035;27;102121;-66
2023/09/10 06:55:21;;;;;;;10.23;9.23;;;;;;;21.17;100.00;96645.47;5092038;27;105541;-66
2023/09/10 06:57:48;;;;;;;10.63;9.73;;;;;;;21.18;100.00;96638.97;5091305;27;106001;-65
2023/09/10 07:00:15;;;;;;;10.77;9.87;;;;;;;21.28;100.00;96635.97;5095484;27;101989;-65
2023/09/10 07:02:42;;;;;;;11.63;10.60;;;;;;;21.27;100.00;96628.97;5091349;27;105697;-65
2023/09/10 07:05:11;;;;;;;10.53;9.53;;;;;;;21.48;100.00;96638.91;5090869;27;103415;-65
2023/09/10 07:07:38;;;;;;;11.83;10.63;;;;;;;21.51;100.00;96632.09;5091839;27;105659;-65
2023/09/10 07:10:06;;;;;;;11.93;10.87;;;;;;;21.65;100.00;96630.88;5091652;27;102882;-65
2023/09/10 07:12:33;;;;;;;10.90;9.90;;;;;;;21.78;100.00;96631.88;5090694;27;102110;-65
2023/09/10 07:15:00;;;;;;;11.80;10.80;;;;;;;21.75;100.00;96637.94;5093287;27;102839;-65
2023/09/10 07:17:27;;;;;;;11.40;10.50;;;;;;;21.93;100.00;96626.03;5090132;27;105645;-65
2023/09/10 07:19:54;;;;;;;11.63;10.67;;;;;;;21.92;100.00;96640.69;5090739;27;101989;-65
2023/09/10 07:22:23;;;;;;;12.70;11.60;;;;;;;21.83;100.00;96637.16;5095071;27;103010;-65
2023/09/10 07:24:50;;;;;;;12.30;11.10;;;;;;;22.01;100.00;96631.44;5090575;27;102273;-65
2023/09/10 07:27:17;;;;;;;13.40;12.13;;;;;;;22.08;100.00;96633.69;5091832;27;102575;-66
2023/09/10 07:29:44;;;;;;;12.17;11.07;;;;;;;22.29;100.00;96634.69;5089555;27;105603;-65
2023/09/10 07:32:11;;;;;;;12.73;11.53;;;;;;;22.32;100.00;96625.91;5090612;27;102135;-65
2023/09/10 07:34:38;;;;;;;11.53;10.43;;;;;;;22.36;100.00;96632.28;5090499;27;105449;-65
2023/09/10 07:37:06;;;;;;;11.53;10.53;;;;;;;22.34;100.00;96623.69;5089691;27;104845;-65
2023/09/10 07:39:34;;;;;;;11.97;10.97;;;;;;;22.44;100.00;96628.78;5090189;27;101949;-65
2023/09/10 07:42:01;;;;;;;10.90;10.00;;;;;;;22.65;100.00;96635.97;5090502;27;103806;-65
2023/09/10 07:44:28;;;;;;;11.90;10.80;;;;;;;22.70;100.00;96629.56;5092966;27;105681;-65
2023/09/10 07:46:55;;;;;;;11.87;10.80;;;;;;;22.90;100.00;96629.72;5090313;27;105308;-65
2023/09/10 07:49:22;;;;;;;12.40;11.20;;;;;;;22.84;100.00;96624.78;5089531;27;106024;-65
2023/09/10 07:51:49;;;;;;;11.27;10.17;;;;;;;22.95;100.00;96628.75;5090117;27;101986;-65
2023/09/10 07:54:16;;;;;;;10.97;10.07;;;;;;;22.81;100.00;96628.94;5089793;27;105480;-65
2023/09/10 07:56:45;;;;;;;11.93;10.93;;;;;;;22.98;100.00;96628.06;5089517;27;105740;-65
2023/09/10 07:59:13;;;;;;;10.90;10.00;;;;;;;23.33;100.00;96624.97;5090018;27;102107;-65
2023/09/10 08:01:40;;;;;;;12.07;10.90;;;;;;;23.52;100.00;96627.28;5089742;27;105754;-65
2023/09/10 08:04:07;;;;;;;11.00;9.90;;;;;;;23.61;100.00;96623.44;5089361;27;105777;-65
2023/09/10 08:06:34;;;;;;;11.10;10.20;;;;;;;23.80;100.00;96622.97;5094229;27;102205;-65
2023/09/10 08:09:02;;;;;;;10.80;9.80;;;;;;;23.93;100.00;96622.00;5089247;27;105427;-65
2023/09/10 08:11:29;;;;;;;10.40;9.50;;;;;;;24.13;100.00;96621.22;5090854;27;102017;-65
2023/09/10 08:13:58;;;;;;;10.90;9.97;;;;;;;24.19;100.00;96619.91;5092250;27;103326;-65
2023/09/10 08:16:25;;;;;;;11.47;10.37;;;;;;;24.39;100.00;96624.53;5089252;27;105532;-65
2023/09/10 08:18:52;;;;;;;11.67;10.67;;;;;;;23.85;100.00;96623.59;5090056;27;101828;-65
2023/09/10 08:21:20;;;;;;;11.53;10.43;;;;;;;23.67;100.00;96618.59;5089789;27;105817;-65
2023/09/10 08:23:47;;;;;;;11.23;10.13;;;;;;;23.58;100.00;96620.53;5089106;27;105656;-65
2023/09/10 08:26:14;;;;;;;11.00;10.07;;;;;;;23.89;100.00;96621.84;5093170;27;102005;-65
2023/09/10 08:28:41;;;;;;;10.80;10.00;;;;;;;23.92;100.00;96623.13;5088770;27;104647;-65
2023/09/10 08:31:12;;;;;;;11.30;10.20;;;;;;;24.01;100.00;96616.50;5089774;27;101899;-65
2023/09/10 08:33:39;;;;;;;11.60;10.57;;;;;;;23.73;100.00;96607.22;5091262;27;102973;-65
2023/09/10 08:36:06;;;;;;;10.60;9.70;;;;;;;24.14;100.00;96612.72;5088656;27;105750;-65
2023/09/10 08:38:34;;;;;;;10.70;9.30;;;;;;;24.43;100.00;96615.38;5090682;27;101833;-65
2023/09/10 08:41:10;;;;;;;9.67;8.97;;;;;;;24.54;100.00;96615.75;5089858;27;105579;-65
2023/09/10 08:43:46;;;;;;;10.57;9.67;;;;;;;24.32;100.00;96614.19;5089224;27;105479;-65
2023/09/10 08:46:15;;;;;;;8.90;8.07;;;;;;;24.37;100.00;96615.91;5089468;27;101931;-65
2023/09/10 08:48:42;;;;;;;9.10;8.30;;;;;;;24.13;100.00;96613.06;5092569;27;105486;-65
2023/09/10 08:51:11;;;;;;;9.07;8.37;;;;;;;24.16;100.00;96607.78;5089650;27;102044;-65
2023/09/10 08:53:39;;;;;;;8.87;7.97;;;;;;;24.49;100.00;96605.91;5089543;27;104197;-65
2023/09/10 08:56:08;;;;;;;8.90;8.17;;;;;;;24.84;100.00;96609.13;5088840;27;105419;-65
2023/09/10 08:58:37;;;;;;;8.97;7.90;;;;;;;25.34;100.00;96609.72;5089599;27;102227;-65
2023/09/10 09:01:05;;;;;;;8.47;7.03;;;;;;;25.76;100.00;96602.88;5089168;27;105355;-65
2023/09/10 09:03:34;;;;;;;8.13;7.43;;;;;;;26.19;100.00;96603.09;5088880;27;104764;-65
2023/09/10 09:06:04;;;;;;;8.00;7.40;;;;;;;26.31;100.00;96603.09;5089452;27;101919;-65
2023/09/10 09:08:33;;;;;;;8.30;7.60;;;;;;;26.36;100.00;96600.09;5089246;27;104951;-65
2023/09/10 09:11:04;;;;;;;8.50;7.90;;;;;;;25.92;100.00;96595.63;5092422;27;105695;-65
2023/09/10 09:13:34;;;;;;;7.83;7.20;;;;;;;26.11;100.00;96588.44;5089349;27;104120;-65
2023/09/10 09:16:02;;;;;;;9.53;8.67;;;;;;;26.16;100.00;96587.44;5088656;27;105550;-65
2023/09/10 09:18:30;;;;;;;8.47;7.73;;;;;;;25.74;100.00;96597.00;5089298;27;102168;-65
2023/09/10 09:21:05;;;;;;;8.50;7.80;;;;;;;25.92;100.00;96598.38;5089221;27;105617;-65
2023/09/10 09:23:37;;;;;;;11.70;7.83;;;;;;;25.67;100.00;96591.34;5088634;27;105737;-65
2023/09/10 09:26:05;;;;;;;9.00;8.30;;;;;;;25.81;100.00;96597.22;5089058;27;102328;-65
2023/09/10 09:28:33;;;;;;;9.63;8.80;;;;;;;25.53;100.00;96583.50;5089266;27;104623;-65
2023/09/10 09:31:01;;;;;;;8.13;7.43;;;;;;;25.99;100.00;96590.44;5088561;27;105912;-65
2023/09/10 09:33:29;;;;;;;8.00;7.40;;;;;;;26.01;100.00;96585.41;5092518;27;101935;-65
2023/09/10 09:36:08;;;;;;;7.53;6.93;;;;;;;26.61;100.00;96585.25;5088271;27;105473;-65
2023/09/10 09:38:35;;;;;;;8.13;7.43;;;;;;;26.54;100.00;96585.81;5089058;27;102160;-65
2023/09/10 09:41:03;;;;;;;7.60;6.97;;;;;;;27.07;100.00;96587.28;5089006;27;105131;-65
2023/09/10 09:43:34;;;;;;;7.50;6.90;;;;;;;26.63;100.00;96572.06;5088196;27;105044;-65
2023/09/10 09:46:01;;;;;;;8.20;7.40;;;;;;;26.88;100.00;96579.78;5088614;27;102051;-65
2023/09/10 09:48:29;;;;;;;7.63;7.03;;;;;;;26.71;100.00;96571.13;5088952;27;105368;-65
2023/09/10 09:50:57;;;;;;;8.57;7.77;;;;;;;26.50;100.00;96567.78;5091556;27;105430;-65
2023/09/10 09:53:28;;;;;;;7.77;7.00;;;;;;;26.99;100.00;96574.59;5092504;27;102149;-65
2023/09/10 09:55:56;;;;;;;8.03;7.30;;;;;;;27.07;100.00;96573.63;5095377;27;105283;-65
2023/09/10 09:58:23;;;;;;;7.33;6.83;;;;;;;26.68;100.00;96569.09;5093697;27;101903;-65
2023/09/10 10:00:50;;;;;;;7.73;6.90;;;;;;;26.51;100.00;96574.81;5092158;27;105328;-65
2023/09/10 10:03:18;;;;;;;7.20;6.63;;;;;;;27.17;100.00;96568.50;5092785;27;103115;-65
2023/09/10 10:05:48;;;;;;;7.37;6.77;;;;;;;27.61;100.00;96569.16;5091947;27;101993;-65
2023/09/10 10:08:15;;;;;;;7.20;6.63;;;;;;;27.95;100.00;96569.22;5092239;27;103996;-65
2023/09/10 10:10:48;;;;;;;7.60;6.97;;;;;;;26.60;100.00;96562.63;5091122;27;106220;-65
2023/09/10 10:13:18;;;;;;;7.77;7.17;;;;;;;26.99;100.00;96555.50;5092363;27;101880;-65
2023/09/10 10:15:47;;;;;;;6.93;6.37;;;;;;;27.68;100.00;96559.19;5092053;27;105513;-65
2023/09/10 10:18:16;;;;;;;7.10;6.50;;;;;;;27.77;100.00;96559.00;5096036;27;102853;-65
2023/09/10 10:20:47;;;;;;;8.18;7.57;;;;;;;27.97;100.00;96561.47;5093170;27;102587;-65
2023/09/10 10:23:15;;;;;;;7.40;6.80;;;;;;;28.14;100.00;96552.06;5092884;27;103086;-65
2023/09/10 10:25:43;;;;;;;7.45;6.75;;;;;;;27.77;100.00;96550.81;5091534;27;102231;-65
2023/09/10 10:28:12;;;;;;;7.35;6.82;;;;;;;27.69;100.00;96549.06;5092506;27;102566;-65
2023/09/10 10:30:49;;;;;;;7.85;7.25;;;;;;;27.53;100.00;96548.31;5092529;27;103353;-65
2023/09/10 10:33:18;;;;;;;7.70;7.10;;;;;;;27.22;100.00;96551.03;5091679;27;101848;-65
2023/09/10 10:35:57;;;;;;;7.68;7.07;;;;;;;27.47;100.00;96541.53;5091820;27;105301;-65
2023/09/10 10:38:29;;;;;;;6.85;6.35;;;;;;;28.40;100.00;96541.31;5094433;27;105698;-65
2023/09/10 10:40:57;;;;;;;7.07;6.43;;;;;;;28.57;100.00;96543.59;5093284;27;102915;-65
2023/09/10 10:43:32;;;;;;;7.70;7.10;;;;;;;28.51;100.00;96543.13;5090933;27;105468;-65
2023/09/10 10:46:01;;;;;;;6.78;6.28;;;;;;;28.88;100.00;96540.69;5091491;27;101844;-65
2023/09/10 10:48:32;;;;;;;6.60;6.10;;;;;;;29.35;100.00;96533.72;5091666;27;104193;-65
2023/09/10 10:51:02;;;;;;;6.82;6.32;;;;;;;29.28;100.00;96530.88;5090831;27;105680;-65
2023/09/10 10:53:30;;;;;;;7.00;6.50;;;;;;;29.28;100.00;96527.31;5091357;27;101916;-65
2023/09/10 10:56:03;;;;;;;6.60;6.10;;;;;;;29.36;100.00;96526.31;5092540;27;101791;-65
2023/09/10 10:58:34;;;;;;;6.70;6.20;;;;;;;29.71;100.00;96529.59;5090805;27;106279;-65
2023/09/10 11:01:03;;;;;;;6.55;6.07;;;;;;;29.87;100.00;96530.25;5094133;27;101784;-65
2023/09/10 11:03:32;;;;;;;6.03;5.55;;;;;;;30.32;100.00;96527.34;5090588;27;104244;-65
2023/09/10 11:06:07;;;;;;;6.10;5.53;;;;;;;30.39;100.00;96530.97;5091154;27;103498;-65
2023/09/10 11:08:38;;;;;;;6.50;5.90;;;;;;;30.69;100.00;96522.72;5073715;27;105440;-65
2023/09/10 11:11:08;;;;;;;5.70;5.30;;;;;;;30.78;100.00;96529.47;5090288;27;105482;-65
2023/09/10 11:14:00;;;;;;;5.68;5.28;;;;;;;30.89;100.00;96524.09;5092216;27;101813;-65
2023/09/10 11:16:30;;;;;;;5.80;5.40;;;;;;;31.15;100.00;96521.19;5090920;27;105318;-65